createdAt,value
2022-11-05T00:00:26.440Z,99768.59
2022-11-05T00:00:57.974Z,99767.63
2022-11-05T00:01:29.695Z,99777.44
2022-11-05T00:02:01.480Z,99771.88
2022-11-05T00:02:33.136Z,99768.06
2022-11-05T00:03:04.709Z,99778.59
2022-11-05T00:03:36.332Z,99770.59
2022-11-05T00:04:07.912Z,99778.75
2022-11-05T00:04:39.540Z,99773.41
2022-11-05T00:05:13.817Z,99772.88
2022-11-05T00:05:45.713Z,99767.06
2022-11-05T00:06:17.299Z,99770.72
2022-11-05T00:06:48.872Z,99773.69
2022-11-05T00:07:20.996Z,99776.06
2022-11-05T00:07:52.561Z,99779.47
2022-11-05T00:08:24.176Z,99777.34
2022-11-05T00:08:55.691Z,99782.84
2022-11-05T00:09:27.252Z,99777.09
2022-11-05T00:10:00.504Z,99776.44
2022-11-05T00:10:32.010Z,99774.16
2022-11-05T00:11:03.782Z,99785.13
2022-11-05T00:11:35.635Z,99774.88
2022-11-05T00:12:08.223Z,99787.94
2022-11-05T00:12:39.777Z,99782.00
2022-11-05T00:13:11.699Z,99786.50
2022-11-05T00:13:43.495Z,99784.53
2022-11-05T00:14:15.018Z,99789.19
2022-11-05T00:14:46.703Z,99784.44
2022-11-05T00:15:18.242Z,99786.97
2022-11-05T00:15:49.812Z,99787.41
2022-11-05T00:16:21.365Z,99788.47
2022-11-05T00:16:52.954Z,99788.78
2022-11-05T00:17:24.588Z,99782.44
2022-11-05T00:17:56.191Z,99794.13
2022-11-05T00:18:27.678Z,99787.50
2022-11-05T00:18:59.235Z,99786.38
2022-11-05T00:19:30.766Z,99788.16
2022-11-05T00:20:02.444Z,99783.28
2022-11-05T00:20:34.087Z,99789.03
2022-11-05T00:21:05.948Z,99792.69
2022-11-05T00:21:38.094Z,99793.38
2022-11-05T00:22:09.704Z,99797.19
2022-11-05T00:22:41.322Z,99797.88
2022-11-05T00:23:13.055Z,99795.88
2022-11-05T00:23:44.826Z,99791.56
2022-11-05T00:24:20.381Z,99793.22
2022-11-05T00:24:54.806Z,99794.81
2022-11-05T00:25:26.380Z,99792.16
2022-11-05T00:25:58.607Z,99795.78
2022-11-05T00:26:30.199Z,99798.84
2022-11-05T00:27:01.728Z,99792.53
2022-11-05T00:27:33.496Z,99790.47
2022-11-05T00:28:05.070Z,99795.09
2022-11-05T00:28:36.687Z,99800.84
2022-11-05T00:29:08.279Z,99795.78
2022-11-05T00:29:39.791Z,99802.56
2022-11-05T00:30:11.820Z,99791.91
2022-11-05T00:30:43.395Z,99797.63
2022-11-05T00:31:14.958Z,99805.34
2022-11-05T00:31:46.842Z,99801.13
2022-11-05T00:32:18.423Z,99806.63
2022-11-05T00:32:50.745Z,99797.47
2022-11-05T00:33:22.428Z,99803.66
2022-11-05T00:33:54.155Z,99800.16
2022-11-05T00:34:25.986Z,99801.13
2022-11-05T00:34:57.742Z,99803.25
2022-11-05T00:35:29.304Z,99805.09
2022-11-05T00:36:02.484Z,99802.44
2022-11-05T00:36:34.232Z,99805.50
2022-11-05T00:37:05.823Z,99806.16
2022-11-05T00:37:37.410Z,99806.16
2022-11-05T00:38:08.981Z,99808.44
2022-11-05T00:38:40.566Z,99806.75
2022-11-05T00:39:12.128Z,99807.16
2022-11-05T00:39:43.645Z,99802.69
2022-11-05T00:40:15.307Z,99803.78
2022-11-05T00:40:46.871Z,99806.38
2022-11-05T00:41:18.925Z,99802.28
2022-11-05T00:41:50.728Z,99804.53
2022-11-05T00:42:22.808Z,99802.28
2022-11-05T00:42:54.571Z,99808.69
2022-11-05T00:43:26.523Z,99803.06
2022-11-05T00:43:58.260Z,99807.16
2022-11-05T00:44:30.215Z,99814.88
2022-11-05T00:45:02.098Z,99810.16
2022-11-05T00:45:34.121Z,99808.69
2022-11-05T00:46:06.100Z,99811.06
2022-11-05T00:46:38.010Z,99815.56
2022-11-05T00:47:09.872Z,99812.63
2022-11-05T00:47:42.183Z,99809.81
2022-11-05T00:48:14.046Z,99816.03
2022-11-05T00:48:46.921Z,99808.44
2022-11-05T00:49:18.686Z,99809.53
2022-11-05T00:49:50.915Z,99808.69
2022-11-05T00:50:22.794Z,99813.88
2022-11-05T00:50:54.587Z,99815.44
2022-11-05T00:51:26.189Z,99814.56
2022-11-05T00:51:59.136Z,99809.91
2022-11-05T00:52:30.891Z,99817.91
2022-11-05T00:53:03.812Z,99809.75
2022-11-05T00:53:35.425Z,99816.03
2022-11-05T00:54:07.291Z,99813.19
2022-11-05T00:54:39.124Z,99813.88
2022-11-05T00:55:10.960Z,99814.03
2022-11-05T00:55:43.414Z,99812.19
2022-11-05T00:56:15.064Z,99812.03
2022-11-05T00:56:46.625Z,99807.56
2022-11-05T00:57:18.196Z,99805.59
2022-11-05T00:57:50.044Z,99809.22
2022-11-05T00:58:21.885Z,99812.75
2022-11-05T00:58:53.441Z,99805.59
2022-11-05T00:59:25.180Z,99805.59
2022-11-05T00:59:56.783Z,99810.91
2022-11-05T01:00:29.272Z,99802.91
2022-11-05T01:01:01.119Z,99806.56
2022-11-05T01:01:32.829Z,99806.41
2022-11-05T01:02:04.585Z,99809.22
2022-11-05T01:02:36.347Z,99808.25
2022-11-05T01:03:09.378Z,99810.09
2022-11-05T01:03:41.222Z,99815.72
2022-11-05T01:04:12.911Z,99816.41
2022-11-05T01:04:44.584Z,99818.25
2022-11-05T01:05:16.193Z,99823.88
2022-11-05T01:05:48.738Z,99817.53
2022-11-05T01:06:20.470Z,99820.19
2022-11-05T01:06:52.177Z,99824.56
2022-11-05T01:07:23.765Z,99814.56
2022-11-05T01:07:55.315Z,99824.56
2022-11-05T01:08:27.166Z,99821.59
2022-11-05T01:08:58.729Z,99819.91
2022-11-05T01:09:30.307Z,99819.91
2022-11-05T01:10:01.865Z,99819.91
2022-11-05T01:10:33.409Z,99821.75
2022-11-05T01:11:14.202Z,99822.88
2022-11-05T01:11:45.728Z,99824.84
2022-11-05T01:12:17.216Z,99826.41
2022-11-05T01:12:48.923Z,99823.88
2022-11-05T01:13:22.057Z,99833.69
2022-11-05T01:13:53.555Z,99834.56
2022-11-05T01:14:25.229Z,99834.56
2022-11-05T01:14:56.764Z,99832.03
2022-11-05T01:15:28.328Z,99825.69
2022-11-05T01:16:04.226Z,99831.88
2022-11-05T01:16:35.864Z,99837.91
2022-11-05T01:17:07.435Z,99835.25
2022-11-05T01:17:39.001Z,99832.88
2022-11-05T01:18:10.678Z,99836.50
2022-11-05T01:18:42.371Z,99839.88
2022-11-05T01:19:13.878Z,99842.41
2022-11-05T01:19:45.435Z,99839.59
2022-11-05T01:20:17.084Z,99835.09
2022-11-05T01:20:48.693Z,99831.59
2022-11-05T01:21:20.197Z,99839.03
2022-11-05T01:21:51.731Z,99836.50
2022-11-05T01:22:23.277Z,99833.00
2022-11-05T01:22:54.857Z,99837.50
2022-11-05T01:23:26.420Z,99840.88
2022-11-05T01:23:58.003Z,99835.53
2022-11-05T01:24:29.600Z,99840.47
2022-11-05T01:25:01.120Z,99839.50
2022-11-05T01:25:32.693Z,99843.81
2022-11-05T01:26:04.275Z,99837.50
2022-11-05T01:26:35.881Z,99841.84
2022-11-05T01:27:07.406Z,99849.16
2022-11-05T01:27:38.895Z,99848.03
2022-11-05T01:28:10.596Z,99842.72
2022-11-05T01:28:42.261Z,99841.84
2022-11-05T01:29:14.074Z,99841.84
2022-11-05T01:29:45.583Z,99847.19
2022-11-05T01:30:17.251Z,99849.84
2022-11-05T01:30:54.871Z,99849.03
2022-11-05T01:31:26.428Z,99857.31
2022-11-05T01:31:57.974Z,99856.19
2022-11-05T01:32:29.559Z,99849.03
2022-11-05T01:33:01.143Z,99853.69
2022-11-05T01:33:32.758Z,99856.06
2022-11-05T01:34:04.409Z,99854.50
2022-11-05T01:34:35.981Z,99851.84
2022-11-05T01:35:08.318Z,99850.31
2022-11-05T01:35:39.869Z,99845.53
2022-11-05T01:36:11.560Z,99846.34
2022-11-05T01:36:43.130Z,99847.19
2022-11-05T01:37:14.662Z,99851.53
2022-11-05T01:37:46.385Z,99849.84
2022-11-05T01:38:20.769Z,99850.31
2022-11-05T01:38:52.405Z,99851.16
2022-11-05T01:39:23.904Z,99848.19
2022-11-05T01:39:55.420Z,99856.19
2022-11-05T01:40:26.929Z,99845.38
2022-11-05T01:40:58.555Z,99842.84
2022-11-05T01:41:30.064Z,99859.41
2022-11-05T01:42:01.582Z,99846.88
2022-11-05T01:42:33.072Z,99854.91
2022-11-05T01:43:05.960Z,99849.56
2022-11-05T01:43:50.778Z,99854.06
2022-11-05T01:44:40.912Z,99853.91
2022-11-05T01:45:18.924Z,99848.59
2022-11-05T01:45:54.790Z,99850.41
2022-11-05T01:46:28.593Z,99852.22
2022-11-05T01:47:00.921Z,99848.59
2022-11-05T01:47:51.692Z,99848.59
2022-11-05T01:48:24.805Z,99849.56
2022-11-05T01:49:02.756Z,99853.91
2022-11-05T01:49:35.116Z,99861.09
2022-11-05T01:50:12.952Z,99858.44
2022-11-05T01:50:54.165Z,99857.56
2022-11-05T01:51:26.329Z,99864.59
2022-11-05T01:52:03.166Z,99862.91
2022-11-05T01:52:35.078Z,99857.41
2022-11-05T01:53:14.971Z,99861.94
2022-11-05T01:54:00.153Z,99866.28
2022-11-05T01:54:32.053Z,99866.59
2022-11-05T01:55:04.186Z,99861.25
2022-11-05T01:55:38.365Z,99869.94
2022-11-05T01:56:11.789Z,99873.59
2022-11-05T01:56:52.111Z,99876.25
2022-11-05T01:57:25.937Z,99870.09
2022-11-05T01:57:57.860Z,99870.75
2022-11-05T01:58:32.162Z,99870.91
2022-11-05T01:59:06.614Z,99878.78
2022-11-05T01:59:39.474Z,99882.31
2022-11-05T02:00:11.679Z,99874.28
2022-11-05T02:00:44.379Z,99878.78
2022-11-05T02:01:17.388Z,99876.09
2022-11-05T02:01:49.349Z,99877.94
2022-11-05T02:02:21.424Z,99882.31
2022-11-05T02:02:53.832Z,99881.44
2022-11-05T02:03:28.520Z,99880.63
2022-11-05T02:04:01.894Z,99881.44
2022-11-05T02:04:39.152Z,99881.44
2022-11-05T02:05:13.815Z,99877.09
2022-11-05T02:05:45.742Z,99880.63
2022-11-05T02:06:17.626Z,99879.78
2022-11-05T02:06:49.603Z,99880.63
2022-11-05T02:07:21.739Z,99882.44
2022-11-05T02:07:53.974Z,99877.78
2022-11-05T02:08:50.680Z,99878.63
2022-11-05T02:09:23.478Z,99877.94
2022-11-05T02:10:01.690Z,99876.09
2022-11-05T02:10:33.485Z,99881.44
2022-11-05T02:11:05.297Z,99876.97
2022-11-05T02:11:37.086Z,99878.63
2022-11-05T02:12:08.967Z,99883.00
2022-11-05T02:12:41.788Z,99875.13
2022-11-05T02:13:13.657Z,99874.44
2022-11-05T02:13:46.068Z,99877.66
2022-11-05T02:14:18.718Z,99876.81
2022-11-05T02:14:50.628Z,99873.28
2022-11-05T02:15:25.459Z,99865.44
2022-11-05T02:15:59.948Z,99876.25
2022-11-05T02:16:49.035Z,99875.28
2022-11-05T02:17:29.986Z,99876.25
2022-11-05T02:18:30.359Z,99878.91
2022-11-05T02:19:04.936Z,99874.44
2022-11-05T02:20:00.358Z,99881.44
2022-11-05T02:20:53.501Z,99877.78
2022-11-05T02:21:43.878Z,99875.28
2022-11-05T02:22:26.929Z,99880.91
2022-11-05T02:23:18.947Z,99882.44
2022-11-05T02:24:08.621Z,99879.63
2022-11-05T02:24:51.800Z,99887.50
2022-11-05T02:25:26.445Z,99885.66
2022-11-05T02:26:04.002Z,99878.78
2022-11-05T02:26:44.070Z,99877.78
2022-11-05T02:27:15.946Z,99878.63
2022-11-05T02:27:52.760Z,99879.50
2022-11-05T02:28:36.902Z,99881.28
2022-11-05T02:29:20.892Z,99880.63
2022-11-05T02:30:02.574Z,99883.13
2022-11-05T02:30:34.053Z,99887.63
2022-11-05T02:31:09.296Z,99889.31
2022-11-05T02:31:40.780Z,99880.63
2022-11-05T02:32:21.903Z,99884.97
2022-11-05T02:32:53.517Z,99890.31
2022-11-05T02:33:43.541Z,99885.94
2022-11-05T02:34:22.212Z,99887.63
2022-11-05T02:35:00.546Z,99883.28
2022-11-05T02:35:36.562Z,99880.63
2022-11-05T02:36:14.099Z,99887.78
2022-11-05T02:36:54.287Z,99886.94
2022-11-05T02:37:28.359Z,99885.94
2022-11-05T02:38:22.895Z,99885.13
2022-11-05T02:39:17.274Z,99889.59
2022-11-05T02:39:48.770Z,99890.75
2022-11-05T02:40:23.792Z,99895.22
2022-11-05T02:41:04.931Z,99893.56
2022-11-05T02:41:40.542Z,99898.91
2022-11-05T02:42:15.864Z,99894.53
2022-11-05T02:43:04.475Z,99902.53
2022-11-05T02:43:37.982Z,99898.91
2022-11-05T02:44:15.132Z,99896.38
2022-11-05T02:44:48.544Z,99899.19
2022-11-05T02:45:30.222Z,99902.41
2022-11-05T02:46:20.341Z,99901.44
2022-11-05T02:46:54.823Z,99901.13
2022-11-05T02:47:29.304Z,99896.91
2022-11-05T02:48:19.094Z,99902.25
2022-11-05T02:48:52.997Z,99899.44
2022-11-05T02:49:42.997Z,99898.75
2022-11-05T02:50:14.509Z,99901.28
2022-11-05T02:51:05.520Z,99899.72
2022-11-05T02:51:57.229Z,99903.22
2022-11-05T02:52:31.444Z,99896.22
2022-11-05T02:53:04.316Z,99895.22
2022-11-05T02:53:51.733Z,99902.41
2022-11-05T02:54:25.227Z,99905.22
2022-11-05T02:55:03.198Z,99901.72
2022-11-05T02:55:37.144Z,99898.03
2022-11-05T02:56:14.428Z,99901.56
2022-11-05T02:56:46.863Z,99899.19
2022-11-05T02:57:19.181Z,99897.22
2022-11-05T02:57:50.686Z,99895.22
2022-11-05T02:58:22.403Z,99894.41
2022-11-05T02:58:54.009Z,99904.09
2022-11-05T02:59:25.638Z,99898.03
2022-11-05T03:00:02.789Z,99898.22
2022-11-05T03:00:50.251Z,99901.44
2022-11-05T03:01:24.343Z,99904.91
2022-11-05T03:01:56.029Z,99902.09
2022-11-05T03:02:27.850Z,99901.28
2022-11-05T03:02:59.541Z,99900.41
2022-11-05T03:03:33.507Z,99902.25
2022-11-05T03:04:06.392Z,99902.25
2022-11-05T03:04:37.962Z,99904.25
2022-11-05T03:05:09.499Z,99906.03
2022-11-05T03:05:51.851Z,99900.88
2022-11-05T03:06:29.351Z,99899.72
2022-11-05T03:07:13.883Z,99903.38
2022-11-05T03:07:49.708Z,99911.56
2022-11-05T03:08:39.539Z,99911.25
2022-11-05T03:09:17.939Z,99904.91
2022-11-05T03:09:58.467Z,99903.56
2022-11-05T03:10:42.036Z,99901.72
2022-11-05T03:11:13.602Z,99907.75
2022-11-05T03:12:23.385Z,99907.06
2022-11-05T03:13:03.736Z,99907.06
2022-11-05T03:14:04.419Z,99905.34
2022-11-05T03:14:35.978Z,99909.56
2022-11-05T03:15:10.803Z,99905.91
2022-11-05T03:15:57.611Z,99906.22
2022-11-05T03:16:42.232Z,99903.69
2022-11-05T03:17:42.785Z,99906.38
2022-11-05T03:18:28.928Z,99908.56
2022-11-05T03:19:00.534Z,99911.25
2022-11-05T03:19:36.376Z,99909.19
2022-11-05T03:20:12.569Z,99910.28
2022-11-05T03:20:48.311Z,99914.22
2022-11-05T03:21:39.790Z,99906.22
2022-11-05T03:22:12.131Z,99907.88
2022-11-05T03:23:13.081Z,99911.25
2022-11-05T03:23:50.500Z,99911.59
2022-11-05T03:24:23.182Z,99911.03
2022-11-05T03:24:55.795Z,99909.34
2022-11-05T03:25:27.355Z,99906.69
2022-11-05T03:26:19.105Z,99913.00
2022-11-05T03:26:57.173Z,99906.53
2022-11-05T03:27:31.747Z,99911.88
2022-11-05T03:28:03.907Z,99910.03
2022-11-05T03:28:36.160Z,99913.00
2022-11-05T03:29:22.837Z,99909.34
2022-11-05T03:29:55.046Z,99911.03
2022-11-05T03:30:26.690Z,99910.03
2022-11-05T03:30:58.206Z,99910.72
2022-11-05T03:31:29.801Z,99916.34
2022-11-05T03:32:01.461Z,99909.75
2022-11-05T03:32:33.822Z,99916.75
2022-11-05T03:33:07.056Z,99914.94
2022-11-05T03:33:38.589Z,99916.75
2022-11-05T03:34:10.096Z,99910.44
2022-11-05T03:34:52.013Z,99917.75
2022-11-05T03:35:24.675Z,99918.88
2022-11-05T03:36:00.719Z,99915.09
2022-11-05T03:36:33.132Z,99912.44
2022-11-05T03:37:04.691Z,99914.09
2022-11-05T03:37:36.847Z,99916.75
2022-11-05T03:38:10.691Z,99912.44
2022-11-05T03:38:42.713Z,99920.56
2022-11-05T03:39:15.766Z,99923.25
2022-11-05T03:39:48.753Z,99916.06
2022-11-05T03:40:20.479Z,99914.41
2022-11-05T03:40:52.754Z,99910.72
2022-11-05T03:41:24.341Z,99920.56
2022-11-05T03:41:55.935Z,99919.75
2022-11-05T03:42:29.198Z,99916.94
2022-11-05T03:43:00.768Z,99922.25
2022-11-05T03:43:33.902Z,99926.06
2022-11-05T03:44:05.788Z,99920.84
2022-11-05T03:44:38.581Z,99923.38
2022-11-05T03:45:11.077Z,99929.25
2022-11-05T03:45:44.283Z,99923.94
2022-11-05T03:46:17.691Z,99927.88
2022-11-05T03:46:49.447Z,99930.69
2022-11-05T03:47:25.212Z,99928.56
2022-11-05T03:47:57.852Z,99928.44
2022-11-05T03:48:29.510Z,99929.25
2022-11-05T03:49:01.750Z,99928.44
2022-11-05T03:49:35.564Z,99930.97
2022-11-05T03:50:07.322Z,99927.59
2022-11-05T03:50:56.310Z,99929.56
2022-11-05T03:51:34.828Z,99926.75
2022-11-05T03:52:07.551Z,99921.41
2022-11-05T03:52:48.414Z,99925.91
2022-11-05T03:53:23.523Z,99932.94
2022-11-05T03:54:00.967Z,99931.09
2022-11-05T03:54:32.939Z,99926.75
2022-11-05T03:55:04.718Z,99930.09
2022-11-05T03:55:37.767Z,99932.06
2022-11-05T03:56:11.157Z,99933.09
2022-11-05T03:56:45.422Z,99932.06
2022-11-05T03:57:16.945Z,99935.75
2022-11-05T03:57:48.525Z,99932.06
2022-11-05T03:58:20.463Z,99929.56
2022-11-05T03:58:57.583Z,99932.38
2022-11-05T03:59:30.699Z,99931.09
2022-11-05T04:00:02.346Z,99937.41
2022-11-05T04:00:33.947Z,99932.06
2022-11-05T04:01:05.570Z,99933.22
2022-11-05T04:01:37.700Z,99933.09
2022-11-05T04:02:12.442Z,99930.41
2022-11-05T04:02:44.236Z,99942.75
2022-11-05T04:03:15.850Z,99936.59
2022-11-05T04:03:47.373Z,99933.22
2022-11-05T04:04:18.901Z,99930.41
2022-11-05T04:04:50.461Z,99934.88
2022-11-05T04:05:22.089Z,99929.69
2022-11-05T04:05:54.247Z,99931.53
2022-11-05T04:06:25.990Z,99932.66
2022-11-05T04:06:57.506Z,99931.69
2022-11-05T04:07:29.049Z,99930.69
2022-11-05T04:08:00.594Z,99929.69
2022-11-05T04:08:32.174Z,99928.88
2022-11-05T04:09:03.812Z,99932.38
2022-11-05T04:09:35.385Z,99933.38
2022-11-05T04:10:07.017Z,99933.38
2022-11-05T04:10:38.670Z,99930.56
2022-11-05T04:11:10.564Z,99934.06
2022-11-05T04:11:42.085Z,99934.06
2022-11-05T04:12:13.595Z,99937.69
2022-11-05T04:12:45.090Z,99934.06
2022-11-05T04:13:16.661Z,99933.22
2022-11-05T04:13:48.245Z,99948.38
2022-11-05T04:14:19.787Z,99943.31
2022-11-05T04:14:51.333Z,99945.84
2022-11-05T04:15:22.904Z,99948.66
2022-11-05T04:15:54.840Z,99943.03
2022-11-05T04:16:26.493Z,99944.03
2022-11-05T04:16:58.044Z,99944.03
2022-11-05T04:17:29.656Z,99943.19
2022-11-05T04:18:01.188Z,99949.53
2022-11-05T04:18:32.803Z,99943.19
2022-11-05T04:19:04.417Z,99939.53
2022-11-05T04:19:36.455Z,99950.91
2022-11-05T04:20:08.044Z,99944.72
2022-11-05T04:20:39.570Z,99946.00
2022-11-05T04:21:11.195Z,99952.03
2022-11-05T04:21:42.717Z,99943.75
2022-11-05T04:22:14.244Z,99949.78
2022-11-05T04:22:45.750Z,99948.94
2022-11-05T04:23:17.276Z,99950.91
2022-11-05T04:23:48.788Z,99951.91
2022-11-05T04:24:20.310Z,99943.75
2022-11-05T04:24:51.892Z,99946.44
2022-11-05T04:25:23.408Z,99944.72
2022-11-05T04:25:54.941Z,99948.09
2022-11-05T04:26:26.542Z,99941.09
2022-11-05T04:26:58.047Z,99941.91
2022-11-05T04:27:29.589Z,99947.25
2022-11-05T04:28:01.157Z,99944.72
2022-11-05T04:28:32.741Z,99945.72
2022-11-05T04:29:07.867Z,99944.72
2022-11-05T04:29:39.729Z,99945.56
2022-11-05T04:30:11.314Z,99942.91
2022-11-05T04:30:42.833Z,99946.44
2022-11-05T04:31:14.416Z,99949.09
2022-11-05T04:31:46.049Z,99949.25
2022-11-05T04:32:17.626Z,99943.91
2022-11-05T04:33:07.923Z,99945.72
2022-11-05T04:33:39.633Z,99938.72
2022-11-05T04:34:11.192Z,99948.38
2022-11-05T04:34:42.874Z,99940.50
2022-11-05T04:35:14.504Z,99946.72
2022-11-05T04:35:46.687Z,99946.72
2022-11-05T04:36:18.237Z,99943.75
2022-11-05T04:36:50.107Z,99942.91
2022-11-05T04:37:21.723Z,99940.22
2022-11-05T04:37:53.402Z,99949.38
2022-11-05T04:38:25.001Z,99949.38
2022-11-05T04:38:56.479Z,99945.72
2022-11-05T04:39:28.137Z,99943.91
2022-11-05T04:39:59.809Z,99945.72
2022-11-05T04:40:31.379Z,99953.72
2022-11-05T04:41:12.165Z,99950.91
2022-11-05T04:41:44.167Z,99954.44
2022-11-05T04:42:15.739Z,99954.44
2022-11-05T04:42:47.215Z,99955.69
2022-11-05T04:43:19.574Z,99947.69
2022-11-05T04:43:51.489Z,99949.38
2022-11-05T04:44:23.088Z,99956.38
2022-11-05T04:44:54.594Z,99952.88
2022-11-05T04:45:26.738Z,99952.75
2022-11-05T04:45:58.341Z,99950.06
2022-11-05T04:46:29.904Z,99952.03
2022-11-05T04:47:01.515Z,99950.06
2022-11-05T04:47:33.069Z,99951.03
2022-11-05T04:48:04.675Z,99945.72
2022-11-05T04:48:36.275Z,99944.72
2022-11-05T04:49:07.826Z,99955.41
2022-11-05T04:49:39.429Z,99946.72
2022-11-05T04:50:11.018Z,99950.34
2022-11-05T04:50:42.628Z,99946.72
2022-11-05T04:51:14.206Z,99946.72
2022-11-05T04:51:45.865Z,99943.03
2022-11-05T04:52:17.491Z,99947.53
2022-11-05T04:52:49.049Z,99950.06
2022-11-05T04:53:20.616Z,99944.72
2022-11-05T04:53:52.157Z,99951.75
2022-11-05T04:54:23.671Z,99950.06
2022-11-05T04:54:55.175Z,99959.03
2022-11-05T04:55:26.715Z,99954.56
2022-11-05T04:56:16.927Z,99955.53
2022-11-05T04:56:48.435Z,99956.25
2022-11-05T04:57:20.109Z,99959.03
2022-11-05T04:57:51.728Z,99954.56
2022-11-05T04:58:23.283Z,99954.44
2022-11-05T04:58:54.805Z,99952.75
2022-11-05T04:59:26.330Z,99951.03
2022-11-05T04:59:57.866Z,99957.25
2022-11-05T05:00:29.402Z,99952.75
2022-11-05T05:01:00.965Z,99953.84
2022-11-05T05:01:32.727Z,99949.53
2022-11-05T05:02:04.421Z,99953.84
2022-11-05T05:02:36.265Z,99954.84
2022-11-05T05:03:07.943Z,99954.72
2022-11-05T05:03:39.606Z,99954.00
2022-11-05T05:04:11.214Z,99958.34
2022-11-05T05:04:42.798Z,99957.38
2022-11-05T05:05:14.390Z,99956.53
2022-11-05T05:05:45.957Z,99956.25
2022-11-05T05:06:17.833Z,99958.22
2022-11-05T05:06:49.406Z,99962.72
2022-11-05T05:07:21.016Z,99963.56
2022-11-05T05:07:52.589Z,99965.53
2022-11-05T05:08:24.164Z,99957.53
2022-11-05T05:08:55.717Z,99961.84
2022-11-05T05:09:27.225Z,99960.75
2022-11-05T05:09:58.824Z,99960.75
2022-11-05T05:10:30.460Z,99956.38
2022-11-05T05:11:07.267Z,99963.56
2022-11-05T05:11:38.934Z,99966.22
2022-11-05T05:12:10.543Z,99960.88
2022-11-05T05:12:42.116Z,99965.53
2022-11-05T05:13:13.745Z,99966.38
2022-11-05T05:13:45.380Z,99960.06
2022-11-05T05:14:16.997Z,99957.38
2022-11-05T05:14:48.811Z,99966.38
2022-11-05T05:15:20.353Z,99962.00
2022-11-05T05:15:51.875Z,99952.03
2022-11-05T05:16:24.347Z,99961.03
2022-11-05T05:16:55.976Z,99965.53
2022-11-05T05:17:27.603Z,99959.19
2022-11-05T05:17:59.201Z,99959.91
2022-11-05T05:18:30.860Z,99968.19
2022-11-05T05:19:02.487Z,99969.72
2022-11-05T05:19:34.018Z,99965.25
2022-11-05T05:20:05.734Z,99962.72
2022-11-05T05:20:37.336Z,99961.03
2022-11-05T05:21:08.967Z,99957.38
2022-11-05T05:21:40.636Z,99959.34
2022-11-05T05:22:12.237Z,99967.34
2022-11-05T05:22:43.795Z,99964.38
2022-11-05T05:23:15.369Z,99966.91
2022-11-05T05:23:47.285Z,99963.41
2022-11-05T05:24:19.220Z,99971.69
2022-11-05T05:24:53.003Z,99969.03
2022-11-05T05:25:24.820Z,99970.59
2022-11-05T05:25:58.311Z,99964.38
2022-11-05T05:26:29.895Z,99964.53
2022-11-05T05:27:01.505Z,99965.53
2022-11-05T05:27:33.075Z,99966.06
2022-11-05T05:28:04.744Z,99969.72
2022-11-05T05:28:36.320Z,99975.06
2022-11-05T05:29:08.159Z,99977.03
2022-11-05T05:29:39.780Z,99970.88
2022-11-05T05:30:11.485Z,99971.69
2022-11-05T05:30:43.087Z,99974.22
2022-11-05T05:31:14.779Z,99970.72
2022-11-05T05:31:46.346Z,99975.06
2022-11-05T05:32:18.020Z,99975.06
2022-11-05T05:32:49.606Z,99978.72
2022-11-05T05:33:21.298Z,99972.38
2022-11-05T05:33:53.501Z,99976.22
2022-11-05T05:34:25.101Z,99977.72
2022-11-05T05:34:56.635Z,99976.06
2022-11-05T05:35:28.284Z,99977.88
2022-11-05T05:35:59.876Z,99973.69
2022-11-05T05:36:31.571Z,99976.22
2022-11-05T05:37:03.172Z,99977.03
2022-11-05T05:37:34.741Z,99979.69
2022-11-05T05:38:06.279Z,99978.72
2022-11-05T05:38:37.892Z,99982.09
2022-11-05T05:39:09.537Z,99983.78
2022-11-05T05:39:41.194Z,99987.28
2022-11-05T05:40:12.707Z,99983.94
2022-11-05T05:40:44.273Z,99980.41
2022-11-05T05:41:15.879Z,99983.06
2022-11-05T05:41:47.497Z,99989.41
2022-11-05T05:42:19.088Z,99984.22
2022-11-05T05:42:54.403Z,99978.88
2022-11-05T05:43:34.646Z,99983.19
2022-11-05T05:44:06.265Z,99990.38
2022-11-05T05:44:38.170Z,99994.00
2022-11-05T05:45:09.855Z,99991.06
2022-11-05T05:45:41.381Z,99980.69
2022-11-05T05:46:13.634Z,99987.03
2022-11-05T05:46:45.235Z,99993.19
2022-11-05T05:47:16.840Z,99995.03
2022-11-05T05:47:48.391Z,99995.03
2022-11-05T05:48:20.064Z,99996.00
2022-11-05T05:48:51.695Z,99992.22
2022-11-05T05:49:23.354Z,99991.63
2022-11-05T05:49:54.920Z,99995.16
2022-11-05T05:50:26.519Z,99995.03
2022-11-05T05:51:01.209Z,99994.16
2022-11-05T05:51:32.886Z,99996.97
2022-11-05T05:52:04.575Z,99998.53
2022-11-05T05:52:36.114Z,99998.38
2022-11-05T05:53:07.769Z,100002.03
2022-11-05T05:53:39.517Z,99996.53
2022-11-05T05:54:11.099Z,99987.72
2022-11-05T05:54:43.206Z,99997.53
2022-11-05T05:55:14.815Z,99998.38
2022-11-05T05:55:46.433Z,99996.41
2022-11-05T05:56:17.989Z,100001.06
2022-11-05T05:56:49.689Z,100006.38
2022-11-05T05:57:21.257Z,99998.25
2022-11-05T05:57:53.738Z,99998.53
2022-11-05T05:58:25.643Z,99993.03
2022-11-05T05:58:57.175Z,99994.88
2022-11-05T05:59:28.753Z,99996.69
2022-11-05T06:00:00.360Z,100002.03
2022-11-05T06:00:31.962Z,99992.50
2022-11-05T06:01:04.078Z,99999.50
2022-11-05T06:01:35.993Z,99998.53
2022-11-05T06:02:07.868Z,100000.50
2022-11-05T06:02:39.820Z,100000.34
2022-11-05T06:03:11.755Z,100001.34
2022-11-05T06:03:43.569Z,100002.31
2022-11-05T06:04:15.259Z,100003.16
2022-11-05T06:04:46.759Z,100003.16
2022-11-05T06:05:18.324Z,100011.03
2022-11-05T06:05:49.970Z,100004.13
2022-11-05T06:06:21.576Z,100007.34
2022-11-05T06:06:53.089Z,100002.31
2022-11-05T06:07:24.801Z,100007.63
2022-11-05T06:07:58.992Z,100007.34
2022-11-05T06:08:30.686Z,100010.16
2022-11-05T06:09:02.277Z,100004.69
2022-11-05T06:09:33.931Z,100011.03
2022-11-05T06:10:05.716Z,100011.88
2022-11-05T06:10:37.257Z,100010.03
2022-11-05T06:11:09.028Z,100018.91
2022-11-05T06:11:40.635Z,100013.69
2022-11-05T06:12:12.354Z,100012.69
2022-11-05T06:12:43.984Z,100009.19
2022-11-05T06:13:15.578Z,100017.47
2022-11-05T06:13:47.195Z,100015.66
2022-11-05T06:14:18.847Z,100016.38
2022-11-05T06:14:50.399Z,100014.53
2022-11-05T06:15:21.925Z,100015.97
2022-11-05T06:15:53.504Z,100011.59
2022-11-05T06:16:25.047Z,100016.66
2022-11-05T06:16:56.653Z,100017.63
2022-11-05T06:17:28.285Z,100019.31
2022-11-05T06:17:59.783Z,100022.69
2022-11-05T06:18:31.415Z,100009.63
2022-11-05T06:19:03.060Z,100018.31
2022-11-05T06:19:34.617Z,100017.47
2022-11-05T06:20:06.354Z,100011.31
2022-11-05T06:20:37.927Z,100009.34
2022-11-05T06:21:10.306Z,100018.50
2022-11-05T06:21:41.904Z,100012.16
2022-11-05T06:22:13.409Z,100012.28
2022-11-05T06:22:44.986Z,100019.31
2022-11-05T06:23:16.533Z,100022.25
2022-11-05T06:23:48.140Z,100008.53
2022-11-05T06:24:19.738Z,100021.56
2022-11-05T06:24:51.298Z,100017.06
2022-11-05T06:25:22.912Z,100017.91
2022-11-05T06:25:54.504Z,100022.97
2022-11-05T06:26:26.064Z,100014.13
2022-11-05T06:26:57.637Z,100020.56
2022-11-05T06:27:29.215Z,100022.97
2022-11-05T06:28:00.774Z,100028.16
2022-11-05T06:28:32.430Z,100020.56
2022-11-05T06:29:04.000Z,100021.28
2022-11-05T06:29:35.565Z,100020.56
2022-11-05T06:30:07.541Z,100027.47
2022-11-05T06:30:39.105Z,100025.75
2022-11-05T06:31:11.074Z,100029.00
2022-11-05T06:31:42.667Z,100029.00
2022-11-05T06:32:14.282Z,100028.84
2022-11-05T06:32:45.886Z,100030.00
2022-11-05T06:33:17.464Z,100032.53